Terminal Aerodrome Forecast
Issued by NWS

Home | Current Version | Previous Version | Text Only | Print | Product List | Glossary On
Versions: 1 2 3 4 5 6 7 8 9 10 11 12 13 14 15 16 17 18 19 20 21 22 23 24
966
FTUS41 KCAR 121128
TAFFVE
TAF
KFVE 121128Z 1212/1312 30009G16KT P6SM SCT025 BKN080
     FM121500 27008KT P6SM SCT030 BKN045
     FM130300 VRB03KT P6SM BKN025
     FM130800 09005KT P6SM VCSH OVC018=

USA.gov is the U.S. government's official web portal to all federal, state and local government web resources and services.